Time;durP1;ratioP1;P1;durP2;ratioP2;P2;SDS_P1;SDS_P2;PMS_P1;PMS_P2;Temp;Humidity;BMP_temperature;BMP_pressure;BME280_temperature;BME280_humidity;BME280_pressure;Samples;Min_cycle;Max_cycle;Signal;HPM_P1;HPM_P2
2023/04/11 00:00:03;;;;;;;7.93;2.50;;;8.00;99.90;;;;;;5073704;28;20411;-61
2023/04/11 00:02:33;;;;;;;7.35;1.98;;;7.90;99.90;;;;;;5073694;28;20048;-60
2023/04/11 00:05:02;;;;;;;6.27;1.80;;;7.90;99.90;;;;;;5073159;28;20048;-61
2023/04/11 00:07:28;;;;;;;7.07;2.13;;;7.80;99.90;;;;;;5072280;28;20052;-62
2023/04/11 00:09:57;;;;;;;8.10;2.22;;;7.80;99.90;;;;;;5072882;28;20056;-61
2023/04/11 00:12:24;;;;;;;6.00;2.20;;;7.80;99.90;;;;;;5073202;28;20447;-63
2023/04/11 00:14:52;;;;;;;10.00;2.38;;;7.60;99.90;;;;;;5073525;28;20048;-63
2023/04/11 00:17:20;;;;;;;10.10;2.60;;;7.60;99.90;;;;;;5071009;28;20488;-62
2023/04/11 00:19:47;;;;;;;9.68;2.10;;;7.60;99.90;;;;;;5072679;28;20048;-61
2023/04/11 00:22:15;;;;;;;6.20;2.60;;;7.50;99.90;;;;;;5073602;28;20048;-62
2023/04/11 00:24:41;;;;;;;7.68;2.40;;;7.50;99.90;;;;;;5074138;28;20056;-61
2023/04/11 00:27:10;;;;;;;17.90;3.30;;;7.40;99.90;;;;;;5071967;28;20060;-61
2023/04/11 00:29:37;;;;;;;12.50;2.55;;;7.40;99.90;;;;;;5073826;28;20049;-61
2023/04/11 00:32:04;;;;;;;15.50;3.50;;;7.30;99.90;;;;;;5073965;28;20036;-61
2023/04/11 00:34:31;;;;;;;11.27;3.00;;;7.30;99.90;;;;;;5071198;28;20103;-62
2023/04/11 00:36:58;;;;;;;11.25;3.53;;;7.20;99.90;;;;;;5073521;28;20086;-61
2023/04/11 00:39:25;;;;;;;15.60;2.92;;;7.20;99.90;;;;;;5073944;28;20044;-61
2023/04/11 00:41:52;;;;;;;9.13;2.53;;;7.10;99.90;;;;;;5072885;28;20040;-62
2023/04/11 00:44:21;;;;;;;9.02;3.10;;;7.10;99.90;;;;;;5073840;28;20090;-62
2023/04/11 00:46:48;;;;;;;10.02;2.88;;;7.00;99.90;;;;;;5073489;28;20055;-61
2023/04/11 00:49:15;;;;;;;14.35;3.22;;;6.90;99.90;;;;;;5073102;28;20044;-62
2023/04/11 00:51:42;;;;;;;12.70;3.10;;;6.90;99.90;;;;;;5072184;28;20439;-61
2023/04/11 00:54:09;;;;;;;12.98;3.20;;;6.90;99.90;;;;;;5073438;28;20053;-61
2023/04/11 00:56:36;;;;;;;17.80;3.33;;;6.90;99.90;;;;;;5069536;28;20059;-61
2023/04/11 00:59:03;;;;;;;16.40;5.20;;;6.90;99.90;;;;;;5073421;28;20052;-62
2023/04/11 01:01:34;;;;;;;14.75;4.57;;;6.80;99.90;;;;;;5073379;28;20094;-62
2023/04/11 01:04:01;;;;;;;10.43;3.38;;;6.80;99.90;;;;;;5072698;28;20064;-61
2023/04/11 01:06:30;;;;;;;12.80;4.05;;;6.80;99.90;;;;;;5072793;28;20060;-62
2023/04/11 01:08:57;;;;;;;12.27;3.15;;;6.70;99.90;;;;;;5073125;28;20124;-61
2023/04/11 01:11:24;;;;;;;15.63;3.50;;;6.70;99.90;;;;;;5072475;28;20048;-63
2023/04/11 01:13:52;;;;;;;13.50;3.50;;;6.60;99.90;;;;;;5070578;28;20048;-62
2023/04/11 01:16:20;;;;;;;13.52;3.55;;;6.60;99.90;;;;;;5072111;28;20118;-62
2023/04/11 01:18:48;;;;;;;18.27;3.45;;;6.60;99.90;;;;;;5071981;28;20098;-62
2023/04/11 01:21:18;;;;;;;16.80;3.13;;;6.50;99.90;;;;;;5070831;28;20051;-62
2023/04/11 01:23:47;;;;;;;17.73;3.78;;;6.50;99.90;;;;;;5071194;28;20492;-62
2023/04/11 01:26:15;;;;;;;17.25;4.18;;;6.50;99.90;;;;;;5071316;28;20049;-62
2023/04/11 01:28:41;;;;;;;10.00;3.05;;;6.50;99.90;;;;;;5072668;28;20562;-63
2023/04/11 01:31:08;;;;;;;21.83;3.50;;;6.40;99.90;;;;;;5070794;28;20447;-63
2023/04/11 01:33:35;;;;;;;10.68;3.55;;;6.50;99.90;;;;;;5072777;28;20044;-62
2023/04/11 01:36:03;;;;;;;11.85;3.10;;;6.50;99.90;;;;;;5072303;28;20481;-62
2023/04/11 01:38:30;;;;;;;12.07;3.25;;;6.60;99.90;;;;;;5071993;28;20488;-61
2023/04/11 01:40:59;;;;;;;16.17;3.92;;;6.60;99.90;;;;;;5072645;28;20044;-62
2023/04/11 01:43:26;;;;;;;16.90;3.00;;;6.70;99.90;;;;;;5071463;28;20121;-62
2023/04/11 01:45:53;;;;;;;11.75;3.03;;;6.70;99.90;;;;;;5071754;28;20062;-62
2023/04/11 01:48:21;;;;;;;6.63;1.83;;;6.80;99.90;;;;;;5071516;28;20060;-62
2023/04/11 01:50:47;;;;;;;5.47;1.70;;;6.90;99.90;;;;;;5070953;28;20040;-61
2023/04/11 01:53:14;;;;;;;17.48;2.45;;;6.90;99.90;;;;;;5072019;28;20044;-61
2023/04/11 01:55:41;;;;;;;10.30;2.47;;;7.00;99.90;;;;;;5072510;28;20051;-62
2023/04/11 01:58:09;;;;;;;8.65;2.00;;;7.00;99.90;;;;;;5072127;28;20044;-62
2023/04/11 02:00:36;;;;;;;7.03;1.60;;;7.00;99.90;;;;;;5071526;28;20113;-62
2023/04/11 02:03:04;;;;;;;10.60;2.75;;;7.10;99.90;;;;;;5072136;28;20052;-62
2023/04/11 02:05:31;;;;;;;5.20;1.58;;;7.10;99.90;;;;;;5071570;28;20075;-62
2023/04/11 02:07:58;;;;;;;3.53;1.30;;;7.10;99.90;;;;;;5072344;28;20040;-62
2023/04/11 02:10:24;;;;;;;6.55;2.08;;;7.10;99.90;;;;;;5072185;28;20052;-62
2023/04/11 02:12:51;;;;;;;2.67;1.10;;;7.10;99.90;;;;;;5071517;28;20044;-62
2023/04/11 02:15:20;;;;;;;3.35;1.15;;;7.10;99.90;;;;;;5071037;28;20052;-62
2023/04/11 02:17:47;;;;;;;3.55;1.50;;;7.10;99.90;;;;;;5069989;28;20056;-61
2023/04/11 02:20:15;;;;;;;4.22;1.20;;;7.10;99.90;;;;;;5071513;28;20048;-62
2023/04/11 02:22:42;;;;;;;6.22;1.23;;;7.10;99.90;;;;;;5070853;28;20127;-61
2023/04/11 02:25:09;;;;;;;2.88;1.10;;;7.00;99.90;;;;;;5071434;28;20061;-63
2023/04/11 02:27:36;;;;;;;2.35;1.20;;;7.10;99.90;;;;;;5071424;28;20372;-63
2023/04/11 02:30:04;;;;;;;2.42;1.00;;;7.00;99.90;;;;;;5072158;28;20389;-62
2023/04/11 02:32:35;;;;;;;6.93;1.10;;;7.10;99.90;;;;;;5071963;28;20048;-61
2023/04/11 02:35:03;;;;;;;2.05;1.10;;;7.10;99.90;;;;;;5071671;28;20416;-60
2023/04/11 02:37:29;;;;;;;3.00;1.10;;;7.10;99.90;;;;;;5068754;28;20473;-63
2023/04/11 02:39:58;;;;;;;5.22;1.30;;;7.10;99.90;;;;;;5070772;28;20454;-62
2023/04/11 02:42:25;;;;;;;3.72;1.10;;;7.10;99.90;;;;;;5070259;28;20048;-63
2023/04/11 02:44:54;;;;;;;7.90;1.33;;;7.10;99.90;;;;;;5071783;28;20078;-62
2023/04/11 02:47:21;;;;;;;4.78;1.17;;;7.10;99.90;;;;;;5071940;28;20086;-61
2023/04/11 02:49:49;;;;;;;6.47;1.70;;;7.10;99.90;;;;;;5069833;28;20048;-61
2023/04/11 02:52:17;;;;;;;5.40;1.50;;;7.10;99.90;;;;;;5070438;28;20048;-61
2023/04/11 02:54:44;;;;;;;5.15;1.10;;;7.10;99.90;;;;;;5070381;28;20121;-61
2023/04/11 02:57:12;;;;;;;10.43;1.88;;;7.10;99.90;;;;;;5071352;28;20044;-62
2023/04/11 02:59:38;;;;;;;4.93;1.60;;;7.10;99.90;;;;;;5071989;28;20451;-62
2023/04/11 03:02:05;;;;;;;6.60;1.95;;;7.10;99.90;;;;;;5069017;28;20049;-63
2023/04/11 03:04:32;;;;;;;6.60;2.03;;;7.10;99.90;;;;;;5071710;28;20098;-63
2023/04/11 03:07:00;;;;;;;6.75;2.08;;;7.10;99.90;;;;;;5069657;28;20045;-62
2023/04/11 03:09:27;;;;;;;5.60;1.60;;;7.10;99.90;;;;;;5070981;28;20098;-61
2023/04/11 03:11:54;;;;;;;4.32;1.65;;;7.10;99.90;;;;;;5070110;28;20041;-62
2023/04/11 03:14:21;;;;;;;9.32;1.75;;;7.10;99.90;;;;;;5070485;28;20056;-61
2023/04/11 03:16:48;;;;;;;3.72;1.63;;;7.10;99.90;;;;;;5069749;28;20098;-62
2023/04/11 03:19:15;;;;;;;9.77;1.60;;;7.10;99.90;;;;;;5070245;28;20048;-61
2023/04/11 03:21:42;;;;;;;5.45;1.88;;;7.20;99.90;;;;;;5071716;28;20041;-62
2023/04/11 03:24:11;;;;;;;5.97;1.98;;;7.10;99.90;;;;;;5071171;28;20055;-62
2023/04/11 03:26:38;;;;;;;8.40;2.00;;;7.10;99.90;;;;;;5071365;28;20053;-61
2023/04/11 03:29:05;;;;;;;4.63;1.92;;;7.10;99.90;;;;;;5071660;28;20052;-62
2023/04/11 03:31:32;;;;;;;7.90;2.20;;;7.10;99.90;;;;;;5070738;28;20048;-63
2023/04/11 03:33:59;;;;;;;6.82;2.22;;;7.10;99.90;;;;;;5071634;28;20098;-61
2023/04/11 03:36:26;;;;;;;9.13;2.63;;;7.10;99.90;;;;;;5072304;28;20090;-62
2023/04/11 03:38:53;;;;;;;4.03;1.50;;;7.10;99.90;;;;;;5073162;28;20503;-61
2023/04/11 03:41:21;;;;;;;4.35;1.90;;;7.10;99.90;;;;;;5074599;28;20057;-62
2023/04/11 03:43:48;;;;;;;5.95;1.98;;;7.10;99.90;;;;;;5074833;28;20442;-62
2023/04/11 03:46:15;;;;;;;6.32;2.20;;;7.10;99.90;;;;;;5071906;28;20466;-63
2023/04/11 03:48:42;;;;;;;6.97;2.85;;;7.10;99.90;;;;;;5074571;28;20454;-63
2023/04/11 03:51:09;;;;;;;8.48;2.17;;;7.20;99.90;;;;;;5073742;28;20056;-62
2023/04/11 03:53:36;;;;;;;5.95;2.25;;;7.20;99.90;;;;;;5072333;28;20411;-63
2023/04/11 03:56:03;;;;;;;6.05;2.20;;;7.20;99.90;;;;;;5061359;28;20056;-63
2023/04/11 03:58:31;;;;;;;5.88;2.17;;;7.20;99.90;;;;;;5069817;28;20052;-62
2023/04/11 04:00:58;;;;;;;10.30;3.35;;;7.30;99.90;;;;;;5073636;28;20500;-62
2023/04/11 04:03:25;;;;;;;10.93;2.92;;;7.30;99.90;;;;;;5072456;28;20041;-61
2023/04/11 04:05:51;;;;;;;10.70;3.08;;;7.30;99.90;;;;;;5070711;28;20052;-61
2023/04/11 04:08:18;;;;;;;6.38;2.47;;;7.30;99.90;;;;;;5071641;28;20561;-62
2023/04/11 04:10:45;;;;;;;12.60;2.78;;;7.30;99.90;;;;;;5069878;28;20381;-62
2023/04/11 04:13:12;;;;;;;16.50;2.85;;;7.30;99.90;;;;;;5069059;28;20484;-62
2023/04/11 04:15:41;;;;;;;9.20;2.63;;;7.30;99.90;;;;;;5072742;28;20113;-62
2023/04/11 04:18:08;;;;;;;10.68;2.90;;;7.30;99.90;;;;;;5071948;28;20052;-62
2023/04/11 04:20:35;;;;;;;9.00;2.92;;;7.30;99.90;;;;;;5072338;28;20540;-62
2023/04/11 04:23:03;;;;;;;15.48;3.05;;;7.30;99.90;;;;;;5071375;28;20086;-63
2023/04/11 04:25:30;;;;;;;4.45;2.42;;;7.40;99.90;;;;;;5072566;28;20056;-62
2023/04/11 04:27:59;;;;;;;11.05;3.63;;;7.40;99.90;;;;;;5068515;28;20053;-62
2023/04/11 04:30:27;;;;;;;13.55;3.10;;;7.40;99.90;;;;;;5072714;28;20048;-62
2023/04/11 04:32:57;;;;;;;7.47;3.28;;;7.40;99.90;;;;;;5071933;28;20131;-62
2023/04/11 04:35:24;;;;;;;6.22;2.47;;;7.40;99.90;;;;;;5067646;28;21982;-62
2023/04/11 04:37:52;;;;;;;9.60;3.08;;;7.40;99.90;;;;;;5102980;28;20431;-62
2023/04/11 04:40:21;;;;;;;8.98;3.13;;;7.40;99.90;;;;;;5068333;28;20056;-62
2023/04/11 04:42:56;;;;;;;9.25;2.60;;;7.40;99.90;;;;;;5070717;28;20534;-61
2023/04/11 04:45:24;;;;;;;8.77;2.45;;;7.30;99.90;;;;;;5070870;28;20060;-62
2023/04/11 04:47:51;;;;;;;9.57;3.00;;;7.40;99.90;;;;;;5071194;28;20114;-62
2023/04/11 04:50:19;;;;;;;9.30;2.85;;;7.30;99.90;;;;;;5069009;28;20056;-62
2023/04/11 04:52:46;;;;;;;8.07;3.60;;;7.30;99.90;;;;;;5070980;28;20055;-61
2023/04/11 04:55:14;;;;;;;9.20;2.92;;;7.20;99.90;;;;;;5064981;28;20040;-62
2023/04/11 04:57:41;;;;;;;8.93;3.08;;;7.20;99.90;;;;;;5069835;28;20044;-63
2023/04/11 05:00:10;;;;;;;10.65;2.70;;;7.20;99.90;;;;;;5069774;28;20048;-62
2023/04/11 05:02:39;;;;;;;6.85;2.80;;;7.20;99.90;;;;;;5102007;28;20534;-61
2023/04/11 05:05:07;;;;;;;12.95;3.00;;;7.20;99.90;;;;;;5067387;28;20052;-62
2023/04/11 05:07:36;;;;;;;12.98;3.70;;;7.20;99.90;;;;;;5070300;28;20098;-62
2023/04/11 05:10:03;;;;;;;17.05;3.80;;;7.20;99.90;;;;;;5068716;28;20131;-61
2023/04/11 05:12:30;;;;;;;9.45;3.45;;;7.20;99.90;;;;;;5067899;28;20037;-63
2023/04/11 05:14:56;;;;;;;15.00;3.92;;;7.20;99.90;;;;;;5070054;28;20055;-61
2023/04/11 05:17:23;;;;;;;11.68;2.75;;;7.20;99.90;;;;;;5067766;28;20465;-62
2023/04/11 05:19:50;;;;;;;10.95;3.58;;;7.20;99.90;;;;;;5071040;28;20048;-62
2023/04/11 05:22:17;;;;;;;9.73;3.00;;;7.30;99.90;;;;;;5071293;28;20048;-61
2023/04/11 05:24:45;;;;;;;8.90;2.78;;;7.20;99.90;;;;;;5071453;28;20097;-61
2023/04/11 05:27:13;;;;;;;12.23;3.10;;;7.20;99.90;;;;;;5070013;28;20052;-61
2023/04/11 05:29:40;;;;;;;14.73;3.17;;;7.20;99.90;;;;;;5071821;28;20436;-61
2023/04/11 05:32:07;;;;;;;10.43;3.35;;;7.20;99.90;;;;;;5068867;28;20041;-61
2023/04/11 05:34:34;;;;;;;11.43;3.30;;;7.20;99.90;;;;;;5068499;28;20056;-61
2023/04/11 05:37:01;;;;;;;12.35;2.50;;;7.20;99.90;;;;;;5069230;28;20155;-61
2023/04/11 05:39:28;;;;;;;10.15;2.75;;;7.20;99.90;;;;;;5071893;28;20094;-61
2023/04/11 05:41:56;;;;;;;9.52;2.60;;;7.20;99.90;;;;;;5071398;28;20045;-61
2023/04/11 05:44:23;;;;;;;10.90;3.15;;;7.20;99.90;;;;;;5070516;28;20127;-61
2023/04/11 05:46:50;;;;;;;9.60;3.30;;;7.20;99.90;;;;;;5069322;28;20059;-61
2023/04/11 05:49:17;;;;;;;9.20;3.05;;;7.20;99.90;;;;;;5072249;28;20053;-61
2023/04/11 05:51:44;;;;;;;10.13;3.33;;;7.20;99.90;;;;;;5070585;28;20427;-61
2023/04/11 05:54:11;;;;;;;10.48;3.80;;;7.20;99.90;;;;;;5072271;28;20045;-60
2023/04/11 05:56:41;;;;;;;11.60;3.63;;;7.20;99.90;;;;;;5071778;28;20759;-60
2023/04/11 05:59:09;;;;;;;8.80;3.13;;;7.20;99.90;;;;;;5071153;28;20464;-61
2023/04/11 06:01:38;;;;;;;11.75;3.80;;;7.20;99.90;;;;;;5072116;28;20492;-62
2023/04/11 06:04:05;;;;;;;10.18;3.53;;;7.30;99.90;;;;;;5071977;28;20127;-60
2023/04/11 06:06:32;;;;;;;11.65;3.88;;;7.40;99.90;;;;;;5071646;28;20045;-62
2023/04/11 06:09:00;;;;;;;7.15;3.00;;;7.40;99.90;;;;;;5071966;28;20055;-61
2023/04/11 06:11:26;;;;;;;9.60;4.15;;;7.40;99.90;;;;;;5072477;28;20048;-61
2023/04/11 06:13:53;;;;;;;9.35;3.25;;;7.30;99.90;;;;;;5071420;28;20067;-60
2023/04/11 06:16:22;;;;;;;8.52;3.20;;;7.20;99.90;;;;;;5072068;28;20051;-61
2023/04/11 06:18:48;;;;;;;18.98;3.40;;;7.20;99.90;;;;;;5068456;28;20511;-61
2023/04/11 06:21:15;;;;;;;8.40;2.97;;;7.20;99.90;;;;;;5071045;28;20439;-61
2023/04/11 06:23:42;;;;;;;13.82;3.22;;;7.30;99.90;;;;;;5071978;28;20052;-62
2023/04/11 06:26:09;;;;;;;12.63;3.53;;;7.50;99.90;;;;;;5071481;28;20057;-62
2023/04/11 06:28:36;;;;;;;16.50;4.15;;;7.60;99.90;;;;;;5070846;28;20102;-61
2023/04/11 06:31:03;;;;;;;14.05;4.05;;;7.70;99.90;;;;;;5070878;28;20048;-60
2023/04/11 06:33:31;;;;;;;22.90;3.88;;;7.70;99.90;;;;;;5071213;28;20051;-61
2023/04/11 06:35:58;;;;;;;6.97;2.78;;;7.60;99.90;;;;;;5069994;28;20040;-61
2023/04/11 06:38:25;;;;;;;9.88;3.90;;;7.60;99.90;;;;;;5071558;28;20063;-61
2023/04/11 06:40:53;;;;;;;20.15;4.53;;;7.50;99.90;;;;;;5070362;28;20101;-62
2023/04/11 06:43:20;;;;;;;14.15;3.67;;;7.40;99.90;;;;;;5069989;28;20400;-60
2023/04/11 06:45:48;;;;;;;14.35;3.30;;;7.50;99.90;;;;;;5071887;28;20048;-61
2023/04/11 06:48:16;;;;;;;11.60;3.38;;;7.50;99.90;;;;;;5070990;28;20544;-61
2023/04/11 06:50:45;;;;;;;17.80;3.67;;;7.60;99.90;;;;;;5068637;28;20132;-61
2023/04/11 06:53:12;;;;;;;11.35;3.38;;;7.70;99.90;;;;;;5071743;28;20140;-60
2023/04/11 06:55:38;;;;;;;15.85;3.30;;;7.70;99.90;;;;;;5071368;28;20052;-62
2023/04/11 06:58:05;;;;;;;14.73;4.45;;;7.70;99.90;;;;;;5071600;28;20044;-62
2023/04/11 07:00:32;;;;;;;10.35;2.97;;;7.70;99.90;;;;;;5070643;28;20098;-62
2023/04/11 07:02:59;;;;;;;10.20;3.40;;;7.80;99.90;;;;;;5067861;28;20044;-61
2023/04/11 07:05:26;;;;;;;9.48;3.17;;;7.90;99.90;;;;;;5071240;28;20451;-61
2023/04/11 07:07:54;;;;;;;13.55;2.92;;;7.90;99.90;;;;;;5071724;28;20058;-62
2023/04/11 07:10:23;;;;;;;14.18;3.47;;;8.00;99.90;;;;;;5071922;28;20044;-62
2023/04/11 07:12:50;;;;;;;12.85;4.00;;;8.20;99.90;;;;;;5074171;28;20055;-63
2023/04/11 07:15:17;;;;;;;11.07;3.05;;;8.20;99.90;;;;;;5073623;28;20094;-62
2023/04/11 07:17:44;;;;;;;12.07;3.95;;;8.40;99.90;;;;;;5075057;28;20113;-62
2023/04/11 07:20:12;;;;;;;8.90;3.17;;;8.40;99.90;;;;;;5075481;28;20052;-61
2023/04/11 07:22:42;;;;;;;16.95;3.72;;;8.40;99.90;;;;;;5074749;28;20044;-61
2023/04/11 07:25:11;;;;;;;13.20;2.83;;;8.30;99.90;;;;;;5075171;28;20048;-61
2023/04/11 07:27:39;;;;;;;12.93;3.38;;;8.30;99.90;;;;;;5074023;28;20342;-62
2023/04/11 07:30:07;;;;;;;13.45;3.63;;;8.50;99.90;;;;;;5074327;28;20070;-61
2023/04/11 07:32:35;;;;;;;14.50;3.30;;;8.80;99.90;;;;;;5073805;28;20091;-62
2023/04/11 07:35:02;;;;;;;10.90;2.67;;;9.20;99.90;;;;;;5074990;28;20056;-62
2023/04/11 07:37:29;;;;;;;8.38;2.88;;;9.60;99.90;;;;;;5073159;28;20057;-62
2023/04/11 07:39:56;;;;;;;13.75;4.10;;;9.70;99.90;;;;;;5073915;28;20053;-62
2023/04/11 07:42:25;;;;;;;14.13;3.88;;;9.70;99.90;;;;;;5072711;28;20090;-62
2023/04/11 07:44:51;;;;;;;13.48;3.08;;;9.60;99.90;;;;;;5072735;28;20102;-62
2023/04/11 07:47:18;;;;;;;14.02;3.33;;;9.50;99.90;;;;;;5074869;28;20045;-62
2023/04/11 07:49:45;;;;;;;15.18;2.97;;;9.80;99.90;;;;;;5074851;28;20052;-62
2023/04/11 07:52:12;;;;;;;8.43;2.50;;;9.70;99.90;;;;;;5074202;28;20094;-61
2023/04/11 07:54:39;;;;;;;9.90;2.72;;;9.30;99.90;;;;;;5073547;28;20060;-61
2023/04/11 07:57:06;;;;;;;15.10;3.65;;;9.20;99.90;;;;;;5074528;28;20439;-61
2023/04/11 07:59:34;;;;;;;11.57;2.75;;;8.90;99.90;;;;;;5072810;28;20174;-62
2023/04/11 08:02:03;;;;;;;6.32;2.58;;;8.80;99.90;;;;;;5074674;28;20052;-61
2023/04/11 08:04:32;;;;;;;7.28;2.55;;;8.60;99.90;;;;;;5072592;28;20048;-61
2023/04/11 08:06:59;;;;;;;6.20;2.40;;;8.50;99.90;;;;;;5074266;28;20593;-62
2023/04/11 08:09:26;;;;;;;12.25;2.55;;;8.30;99.90;;;;;;5073099;28;20049;-62
2023/04/11 08:11:53;;;;;;;11.10;2.67;;;8.70;99.90;;;;;;5073787;28;20450;-62
2023/04/11 08:14:20;;;;;;;8.85;2.83;;;9.50;99.90;;;;;;5072869;28;20048;-62
2023/04/11 08:16:48;;;;;;;7.95;2.92;;;10.10;99.90;;;;;;5074257;28;20048;-62
2023/04/11 08:19:16;;;;;;;18.40;4.18;;;10.20;99.90;;;;;;5071536;28;20086;-62
2023/04/11 08:21:42;;;;;;;14.05;3.40;;;9.60;99.90;;;;;;5073595;28;21393;-62
2023/04/11 08:24:09;;;;;;;16.27;2.88;;;9.20;99.90;;;;;;5074155;28;20044;-61
2023/04/11 08:26:36;;;;;;;8.57;2.42;;;9.20;99.90;;;;;;5072197;28;20086;-61
2023/04/11 08:29:03;;;;;;;13.65;3.45;;;9.20;99.90;;;;;;5073023;28;20052;-61
2023/04/11 08:31:31;;;;;;;8.38;2.60;;;9.30;99.90;;;;;;5073938;28;20060;-61
2023/04/11 08:33:59;;;;;;;6.63;2.45;;;9.20;99.90;;;;;;5072010;28;20044;-61
2023/04/11 08:36:26;;;;;;;9.30;2.90;;;9.10;99.90;;;;;;5073680;28;20055;-61
2023/04/11 08:38:54;;;;;;;10.23;2.30;;;9.20;99.90;;;;;;5073754;28;20044;-62
2023/04/11 08:41:21;;;;;;;9.40;2.38;;;9.40;99.90;;;;;;5072016;28;20052;-62
2023/04/11 08:43:48;;;;;;;10.75;3.75;;;10.20;99.90;;;;;;5073780;28;20572;-62
2023/04/11 08:46:17;;;;;;;10.93;2.63;;;11.20;99.90;;;;;;5072238;28;20041;-61
2023/04/11 08:48:44;;;;;;;5.30;2.50;;;12.30;99.90;;;;;;5071854;28;20080;-61
2023/04/11 08:51:13;;;;;;;9.27;3.03;;;13.20;99.90;;;;;;5073588;28;20127;-62
2023/04/11 08:53:41;;;;;;;9.30;3.05;;;13.70;99.90;;;;;;5072619;28;20071;-61
2023/04/11 08:56:14;;;;;;;9.40;2.53;;;14.10;99.90;;;;;;5072396;28;20450;-62
2023/04/11 08:58:41;;;;;;;8.48;2.00;;;13.60;99.90;;;;;;5073296;28;20403;-62
2023/04/11 09:01:28;;;;;;;6.47;1.67;;;13.00;99.90;;;;;;5072561;28;20554;-62
2023/04/11 09:03:55;;;;;;;3.72;1.35;;;12.60;99.90;;;;;;5073178;28;20037;-62
2023/04/11 09:06:23;;;;;;;5.40;1.40;;;13.50;99.90;;;;;;5071675;28;20063;-61
2023/04/11 09:08:50;;;;;;;4.13;1.80;;;14.30;99.90;;;;;;5071255;28;20048;-61
2023/04/11 09:11:17;;;;;;;9.20;2.47;;;14.70;99.90;;;;;;5072108;28;20059;-62
2023/04/11 09:13:44;;;;;;;7.20;2.08;;;15.60;99.90;;;;;;5071831;28;20040;-62
2023/04/11 09:16:13;;;;;;;10.27;3.83;;;16.20;99.90;;;;;;5071331;28;20102;-61
2023/04/11 09:18:41;;;;;;;7.93;2.08;;;15.80;99.90;;;;;;5072888;28;20055;-62
2023/04/11 09:21:10;;;;;;;9.52;2.30;;;16.20;99.90;;;;;;5071066;28;20056;-61
2023/04/11 09:23:39;;;;;;;6.57;2.10;;;15.90;99.90;;;;;;5071276;28;20098;-61
2023/04/11 09:26:07;;;;;;;4.05;1.42;;;15.00;99.90;;;;;;5072794;28;20056;-62
2023/04/11 09:28:41;;;;;;;6.03;1.88;;;14.30;99.90;;;;;;5070794;28;20164;-60
2023/04/11 09:31:09;;;;;;;4.65;1.90;;;14.10;99.90;;;;;;5072696;28;20045;-62
2023/04/11 09:33:36;;;;;;;6.97;1.60;;;12.90;99.90;;;;;;5072069;28;20451;-62
2023/04/11 09:36:19;;;;;;;7.22;2.05;;;12.10;99.90;;;;;;5072005;28;20078;-62
2023/04/11 09:38:47;;;;;;;4.22;1.52;;;11.00;99.90;;;;;;5070412;28;20047;-62
2023/04/11 09:41:15;;;;;;;3.13;1.10;;;10.60;99.90;;;;;;5071464;28;20056;-62
2023/04/11 09:43:53;;;;;;;3.03;1.08;;;10.40;99.90;;;;;;5071983;28;20052;-62
2023/04/11 09:46:21;;;;;;;3.38;1.30;;;10.30;99.90;;;;;;5072524;28;20413;-62
2023/04/11 09:48:48;;;;;;;7.13;1.85;;;10.50;99.90;;;;;;5072504;28;20109;-61
2023/04/11 09:51:16;;;;;;;6.13;1.80;;;11.70;99.90;;;;;;5071695;28;20102;-61
2023/04/11 09:53:43;;;;;;;11.38;2.45;;;12.50;99.90;;;;;;5072346;28;20385;-61
2023/04/11 09:56:12;;;;;;;8.18;2.10;;;12.60;99.90;;;;;;5070288;28;20451;-61
2023/04/11 09:58:40;;;;;;;7.53;1.60;;;11.80;99.90;;;;;;5071810;28;20048;-61
2023/04/11 10:01:09;;;;;;;3.28;1.27;;;11.10;99.90;;;;;;5071306;28;20056;-61
2023/04/11 10:03:38;;;;;;;1.52;0.70;;;10.50;99.90;;;;;;5070519;28;20044;-62
2023/04/11 10:06:07;;;;;;;5.45;1.20;;;9.70;99.90;;;;;;5070105;28;20420;-61
2023/04/11 10:08:36;;;;;;;5.03;1.20;;;9.60;99.90;;;;;;5071944;28;20087;-61
2023/04/11 10:11:06;;;;;;;6.50;1.77;;;9.30;99.90;;;;;;5070579;28;20049;-62
2023/04/11 10:13:44;;;;;;;4.63;1.38;;;8.90;99.90;;;;;;5071167;28;20048;-60
2023/04/11 10:16:13;;;;;;;4.40;1.20;;;9.20;99.90;;;;;;5071045;28;20454;-61
2023/04/11 10:19:13;;;;;;;3.67;1.42;;;10.00;99.90;;;;;;5070484;28;20110;-61
2023/04/11 10:21:41;;;;;;;4.32;1.38;;;10.80;99.90;;;;;;5071018;28;20412;-62
2023/04/11 10:24:09;;;;;;;3.72;1.67;;;11.00;99.90;;;;;;5071140;28;20052;-62
2023/04/11 10:26:47;;;;;;;8.77;1.48;;;11.00;99.90;;;;;;5070254;28;20059;-62
2023/04/11 10:29:49;;;;;;;5.03;1.58;;;10.60;99.90;;;;;;5072037;28;20079;-62
2023/04/11 10:32:25;;;;;;;5.00;1.33;;;10.30;99.90;;;;;;5069285;28;20456;-62
2023/04/11 10:35:21;;;;;;;5.53;1.60;;;9.60;99.90;;;;;;5069776;28;20582;-62
2023/04/11 10:37:49;;;;;;;3.13;1.08;;;9.30;99.90;;;;;;5070333;28;20508;-62
2023/04/11 10:40:19;;;;;;;4.32;1.27;;;8.80;99.90;;;;;;5071314;28;20123;-62
2023/04/11 10:42:47;;;;;;;4.07;1.00;;;8.60;99.90;;;;;;5071953;28;20044;-61
2023/04/11 10:45:23;;;;;;;3.83;1.27;;;8.20;99.90;;;;;;5072833;28;20047;-61
2023/04/11 10:48:09;;;;;;;6.88;1.20;;;8.10;99.90;;;;;;5074171;28;20076;-62
2023/04/11 10:50:39;;;;;;;4.03;1.20;;;8.10;99.90;;;;;;5076178;28;20547;-62
2023/04/11 10:53:08;;;;;;;5.72;1.63;;;8.20;99.90;;;;;;5075649;28;20076;-61
2023/04/11 10:55:53;;;;;;;6.70;1.50;;;8.60;99.90;;;;;;5075756;28;20048;-61
2023/04/11 10:58:21;;;;;;;6.13;1.45;;;9.40;99.90;;;;;;5075608;28;20162;-61
2023/04/11 11:03:55;;;;;;;7.88;2.47;;;10.30;99.90;;;;;;5131085;27;20114;-61
2023/04/11 11:06:23;;;;;;;7.53;1.73;;;11.60;99.90;;;;;;5091630;28;20487;-62
2023/04/11 11:08:50;;;;;;;7.32;2.22;;;11.60;99.90;;;;;;5090944;28;20044;-62
2023/04/11 11:11:18;;;;;;;5.50;1.77;;;11.50;99.90;;;;;;5109953;28;20040;-63
2023/04/11 11:13:47;;;;;;;8.45;1.90;;;11.60;99.90;;;;;;5109808;28;20048;-62
2023/04/11 11:16:15;;;;;;;4.65;2.03;;;11.30;99.90;;;;;;5109163;28;20051;-63
2023/04/11 11:18:46;;;;;;;6.03;2.13;;;11.50;99.90;;;;;;5109565;28;20083;-62
2023/04/11 11:21:15;;;;;;;7.13;1.95;;;12.40;99.90;;;;;;5109550;28;20472;-61
2023/04/11 11:23:58;;;;;;;4.63;1.33;;;12.10;99.90;;;;;;5091363;28;20551;-61
2023/04/11 11:26:36;;;;;;;7.57;1.80;;;12.20;99.90;;;;;;5087168;28;20051;-62
2023/04/11 11:29:04;;;;;;;6.43;1.90;;;11.90;99.90;;;;;;5107554;28;20470;-63
2023/04/11 11:31:36;;;;;;;4.50;1.92;;;12.10;99.90;;;;;;5109433;28;20044;-63
2023/04/11 11:34:03;;;;;;;7.10;1.65;;;12.50;99.90;;;;;;5091460;28;20051;-63
2023/04/11 11:36:34;;;;;;;5.90;1.85;;;13.10;99.90;;;;;;5090263;28;20044;-62
2023/04/11 11:39:04;;;;;;;7.55;1.50;;;13.70;99.90;;;;;;5089574;28;20439;-62
2023/04/11 11:41:31;;;;;;;3.08;1.20;;;14.10;99.90;;;;;;5109346;28;20050;-62
2023/04/11 11:43:58;;;;;;;3.67;1.05;;;14.90;99.90;;;;;;5108610;28;20042;-62
2023/04/11 11:46:28;;;;;;;5.72;1.63;;;15.30;99.90;;;;;;5109159;28;20468;-61
2023/04/11 11:49:00;;;;;;;7.15;1.65;;;14.70;99.90;;;;;;5109331;28;20047;-61
2023/04/11 11:51:27;;;;;;;4.80;1.50;;;13.80;99.90;;;;;;5090568;28;20389;-63
2023/04/11 11:54:07;;;;;;;4.80;1.60;;;14.30;99.90;;;;;;5090955;28;20089;-60
2023/04/11 11:56:34;;;;;;;5.82;1.50;;;15.10;99.90;;;;;;5089900;28;20059;-61
2023/04/11 11:59:02;;;;;;;6.78;1.98;;;15.80;99.90;;;;;;5090683;28;20052;-61
2023/04/11 12:01:29;;;;;;;8.45;2.15;;;16.40;99.90;;;;;;5108763;28;20054;-62
2023/04/11 12:03:56;;;;;;;9.20;2.20;;;16.20;99.90;;;;;;5089867;28;20047;-62
2023/04/11 12:06:25;;;;;;;8.63;1.95;;;16.40;99.90;;;;;;5090540;28;20050;-61
2023/04/11 12:08:53;;;;;;;10.43;2.45;;;15.50;99.90;;;;;;5106555;28;20503;-61
2023/04/11 12:11:21;;;;;;;7.43;2.78;;;14.10;99.90;;;;;;5089999;28;20073;-63
2023/04/11 12:13:53;;;;;;;7.38;2.55;;;13.40;99.90;;;;;;5084842;28;20052;-63
2023/04/11 12:16:22;;;;;;;9.15;3.20;;;12.60;99.90;;;;;;5077194;28;20376;-61
2023/04/11 12:18:49;;;;;;;7.95;2.40;;;13.10;99.90;;;;;;5092034;28;20044;-62
2023/04/11 12:21:16;;;;;;;9.68;2.17;;;14.00;99.90;;;;;;5077035;28;20052;-61
2023/04/11 12:23:43;;;;;;;6.78;1.95;;;15.00;99.90;;;;;;5094829;28;20048;-62
2023/04/11 12:26:10;;;;;;;9.23;2.72;;;14.80;99.90;;;;;;5076208;28;20055;-62
2023/04/11 12:28:38;;;;;;;8.50;2.33;;;14.30;99.90;;;;;;5076466;28;20048;-62
2023/04/11 12:31:05;;;;;;;4.57;1.40;;;13.50;99.90;;;;;;5092902;28;20109;-61
2023/04/11 12:33:32;;;;;;;4.43;1.45;;;12.20;99.90;;;;;;5076099;28;20044;-61
2023/04/11 12:36:00;;;;;;;6.82;1.75;;;11.50;99.90;;;;;;5094786;28;20093;-61
2023/04/11 12:38:27;;;;;;;5.68;1.73;;;11.00;99.90;;;;;;5076319;28;20059;-61
2023/04/11 12:40:54;;;;;;;7.20;2.22;;;11.00;99.90;;;;;;5094180;28;20040;-62
2023/04/11 12:43:21;;;;;;;10.13;2.25;;;12.00;99.90;;;;;;5094611;28;20044;-61
2023/04/11 12:45:49;;;;;;;6.05;2.08;;;12.10;99.90;;;;;;5093931;28;20044;-61
2023/04/11 12:48:16;;;;;;;12.15;2.85;;;12.30;99.90;;;;;;5094355;28;20101;-62
2023/04/11 12:50:43;;;;;;;9.02;2.50;;;11.90;99.90;;;;;;5076627;28;20052;-62
2023/04/11 12:53:10;;;;;;;11.15;2.13;;;11.90;99.90;;;;;;5075606;28;20043;-62
2023/04/11 12:55:37;;;;;;;4.85;2.08;;;11.80;99.90;;;;;;5094396;28;20094;-62
2023/04/11 12:58:03;;;;;;;8.60;2.30;;;11.80;99.90;;;;;;5075743;28;20097;-61